Dauphin Airport, Manitoba

Past 24 Hour Conditions

This table is a summary of hourly weather conditions for the past 24 hours. This summary includes the following parameters: temperature, humidity, dew point, wind speed and direction, air pressure, visibility and/or wind chill and humidex.
Date / Time
(CDT)
Conditions Temp (°F) Humidity (%) Dew Point (°F) Wind (mph) Pressure (inches) Vis (mi) Humidex
22 July 2014
12:00 Mainly Sunny 73 53 55 N 7 30.2 10 78
11:00 Sunny 70 66 58 NW 3 30.2 10 77
10:00 Sunny 68 72 58 NNW 5 30.2 10 *
9:00 N/A 65 75 57 WNW 3 30.2 10 *
8:00 Sunny 61 84 57 WNW 7 30.1 10 *
7:00 Sunny 57 91 55 SW 7 30.1 10 *
6:00 Sunny 56   92 53 WSW 7 30.1 10 *
5:00 Clear 56   93 54 WSW 9 30.1 10 *
4:00 Clear 58 92 55 W 7 30.0 10 *
3:00 Clear 58 94 56 W 6 30.0 10 *
2:00 Cloudy 61 92 59 W 6 30.0 10 *
1:00 Mostly Cloudy 60 93 58 WSW 6 30.0 10 *
00:00 Clear 61 92 58 WSW 8 29.9 10 *
21 July 2014
23:00 Mostly Cloudy 62 91 60 SSW 3 29.9 10 *
22:00 Clear 66 80 60 S 2 29.9 10 *
21:00 Partly Cloudy 70 68 59 NW 3 29.9 10 77
20:00 Sunny 71 63 58 NW 2 29.9 10 78
19:00 Mainly Sunny 71 64 59 WNW 6 29.9 10 78
18:00 Partly Cloudy 72 64 59 W 6 29.9 10 79
17:00 N/A N/A N/A N/A N/A N/A N/A *
16:00 N/A N/A N/A N/A N/A N/A N/A *
15:00 N/A N/A N/A N/A N/A N/A N/A *
14:00 N/A 75   51 57 W 3 29.9 N/A 81
13:00 Sunny 73 51 54 WNW 6 29.9 10 77
12:00 Sunny 73 47 52 calm 29.9 10 77
N/A
Not available
 ↑ 
Highest temperature
 ↓ 
Lowest temperature
*
Value not significant.

If you require additional historical weather information, please visit Climate Data Online.